sensor_id;sensor_type;location;lat;lon;timestamp;temperature;humidity
64062;DHT22;50308;47.438;-1.528;2023-05-29T00:01:49;20.40;75.20
64062;DHT22;50308;47.438;-1.528;2023-05-29T00:04:15;20.40;74.80
64062;DHT22;50308;47.438;-1.528;2023-05-29T00:06:41;20.40;74.90
64062;DHT22;50308;47.438;-1.528;2023-05-29T00:09:07;20.40;74.80
64062;DHT22;50308;47.438;-1.528;2023-05-29T00:11:33;20.40;74.70
64062;DHT22;50308;47.438;-1.528;2023-05-29T00:13:59;20.30;74.60
64062;DHT22;50308;47.438;-1.528;2023-05-29T00:16:31;20.30;74.60
64062;DHT22;50308;47.438;-1.528;2023-05-29T00:18:58;20.30;74.50
64062;DHT22;50308;47.438;-1.528;2023-05-29T00:21:27;20.30;74.60
64062;DHT22;50308;47.438;-1.528;2023-05-29T00:23:53;20.30;74.50
64062;DHT22;50308;47.438;-1.528;2023-05-29T00:26:22;20.30;74.50
64062;DHT22;50308;47.438;-1.528;2023-05-29T00:28:47;20.30;74.30
64062;DHT22;50308;47.438;-1.528;2023-05-29T00:31:14;20.30;74.20
64062;DHT22;50308;47.438;-1.528;2023-05-29T00:33:53;20.30;74.30
64062;DHT22;50308;47.438;-1.528;2023-05-29T00:36:20;20.30;74.10
64062;DHT22;50308;47.438;-1.528;2023-05-29T00:38:47;20.30;74.50
64062;DHT22;50308;47.438;-1.528;2023-05-29T00:41:20;20.30;74.00
64062;DHT22;50308;47.438;-1.528;2023-05-29T00:43:56;20.20;74.00
64062;DHT22;50308;47.438;-1.528;2023-05-29T00:46:26;20.20;74.10
64062;DHT22;50308;47.438;-1.528;2023-05-29T00:48:58;20.20;74.10
64062;DHT22;50308;47.438;-1.528;2023-05-29T00:51:29;20.20;73.90
64062;DHT22;50308;47.438;-1.528;2023-05-29T00:53:57;20.20;73.90
64062;DHT22;50308;47.438;-1.528;2023-05-29T00:56:24;20.20;73.70
64062;DHT22;50308;47.438;-1.528;2023-05-29T00:58:52;20.20;73.70
64062;DHT22;50308;47.438;-1.528;2023-05-29T01:01:19;20.20;73.50
64062;DHT22;50308;47.438;-1.528;2023-05-29T01:03:50;20.20;73.60
64062;DHT22;50308;47.438;-1.528;2023-05-29T01:06:18;20.20;73.70
64062;DHT22;50308;47.438;-1.528;2023-05-29T01:08:49;20.20;73.60
64062;DHT22;50308;47.438;-1.528;2023-05-29T01:13:51;20.10;73.70
64062;DHT22;50308;47.438;-1.528;2023-05-29T01:19:45;20.10;73.60
64062;DHT22;50308;47.438;-1.528;2023-05-29T01:25:05;20.10;73.40
64062;DHT22;50308;47.438;-1.528;2023-05-29T01:27:42;20.10;73.60
64062;DHT22;50308;47.438;-1.528;2023-05-29T01:30:11;20.10;73.60
64062;DHT22;50308;47.438;-1.528;2023-05-29T01:32:45;20.10;73.80
64062;DHT22;50308;47.438;-1.528;2023-05-29T01:35:38;20.10;73.60
64062;DHT22;50308;47.438;-1.528;2023-05-29T01:38:06;20.10;73.70
64062;DHT22;50308;47.438;-1.528;2023-05-29T01:40:33;20.00;73.30
64062;DHT22;50308;47.438;-1.528;2023-05-29T01:42:59;20.00;73.70
64062;DHT22;50308;47.438;-1.528;2023-05-29T01:45:26;20.00;73.60
64062;DHT22;50308;47.438;-1.528;2023-05-29T01:47:52;20.00;73.60
64062;DHT22;50308;47.438;-1.528;2023-05-29T01:50:19;20.00;73.80
64062;DHT22;50308;47.438;-1.528;2023-05-29T01:52:46;20.00;73.70
64062;DHT22;50308;47.438;-1.528;2023-05-29T01:55:12;20.00;73.80
64062;DHT22;50308;47.438;-1.528;2023-05-29T01:57:38;19.90;73.80
64062;DHT22;50308;47.438;-1.528;2023-05-29T02:00:05;19.90;73.70
64062;DHT22;50308;47.438;-1.528;2023-05-29T02:02:37;19.90;73.80
64062;DHT22;50308;47.438;-1.528;2023-05-29T02:05:04;19.90;73.70
64062;DHT22;50308;47.438;-1.528;2023-05-29T02:07:31;19.90;74.00
64062;DHT22;50308;47.438;-1.528;2023-05-29T02:09:56;19.90;73.70
64062;DHT22;50308;47.438;-1.528;2023-05-29T02:12:22;19.90;73.70
64062;DHT22;50308;47.438;-1.528;2023-05-29T02:14:48;19.90;73.60
64062;DHT22;50308;47.438;-1.528;2023-05-29T02:17:14;19.80;73.70
64062;DHT22;50308;47.438;-1.528;2023-05-29T02:19:40;19.90;73.80
64062;DHT22;50308;47.438;-1.528;2023-05-29T02:22:07;19.80;73.90
64062;DHT22;50308;47.438;-1.528;2023-05-29T02:24:33;19.80;73.70
64062;DHT22;50308;47.438;-1.528;2023-05-29T02:26:58;19.80;73.80
64062;DHT22;50308;47.438;-1.528;2023-05-29T02:29:24;19.80;73.80
64062;DHT22;50308;47.438;-1.528;2023-05-29T02:31:50;19.80;73.90
64062;DHT22;50308;47.438;-1.528;2023-05-29T02:34:16;19.80;73.80
64062;DHT22;50308;47.438;-1.528;2023-05-29T02:36:42;19.70;73.90
64062;DHT22;50308;47.438;-1.528;2023-05-29T02:39:07;19.70;73.80
64062;DHT22;50308;47.438;-1.528;2023-05-29T02:41:40;19.70;73.90
64062;DHT22;50308;47.438;-1.528;2023-05-29T02:44:07;19.70;73.90
64062;DHT22;50308;47.438;-1.528;2023-05-29T02:46:38;19.70;73.90
64062;DHT22;50308;47.438;-1.528;2023-05-29T02:49:06;19.60;73.60
64062;DHT22;50308;47.438;-1.528;2023-05-29T02:51:32;19.60;73.70
64062;DHT22;50308;47.438;-1.528;2023-05-29T02:53:58;19.60;73.80
64062;DHT22;50308;47.438;-1.528;2023-05-29T02:56:24;19.60;73.60
64062;DHT22;50308;47.438;-1.528;2023-05-29T02:58:50;19.70;73.70
64062;DHT22;50308;47.438;-1.528;2023-05-29T03:01:16;19.70;73.50
64062;DHT22;50308;47.438;-1.528;2023-05-29T03:03:42;19.60;73.50
64062;DHT22;50308;47.438;-1.528;2023-05-29T03:06:08;19.60;73.50
64062;DHT22;50308;47.438;-1.528;2023-05-29T03:08:35;19.50;73.80
64062;DHT22;50308;47.438;-1.528;2023-05-29T03:11:08;19.50;73.70
64062;DHT22;50308;47.438;-1.528;2023-05-29T03:13:39;19.50;73.80
64062;DHT22;50308;47.438;-1.528;2023-05-29T03:16:06;19.50;73.90
64062;DHT22;50308;47.438;-1.528;2023-05-29T03:18:34;19.50;73.70
64062;DHT22;50308;47.438;-1.528;2023-05-29T03:21:01;19.50;73.60
64062;DHT22;50308;47.438;-1.528;2023-05-29T03:23:27;19.50;73.60
64062;DHT22;50308;47.438;-1.528;2023-05-29T03:25:53;19.40;73.80
64062;DHT22;50308;47.438;-1.528;2023-05-29T03:28:19;19.40;73.70
64062;DHT22;50308;47.438;-1.528;2023-05-29T03:30:45;19.40;73.80
64062;DHT22;50308;47.438;-1.528;2023-05-29T03:33:10;19.40;73.90
64062;DHT22;50308;47.438;-1.528;2023-05-29T03:35:36;19.40;75.00
64062;DHT22;50308;47.438;-1.528;2023-05-29T03:38:02;19.30;73.90
64062;DHT22;50308;47.438;-1.528;2023-05-29T03:40:27;19.30;74.00
64062;DHT22;50308;47.438;-1.528;2023-05-29T03:42:53;19.30;73.90
64062;DHT22;50308;47.438;-1.528;2023-05-29T03:45:20;19.20;74.10
64062;DHT22;50308;47.438;-1.528;2023-05-29T03:47:46;19.20;74.30
64062;DHT22;50308;47.438;-1.528;2023-05-29T03:50:11;19.20;74.00
64062;DHT22;50308;47.438;-1.528;2023-05-29T03:52:41;19.20;73.90
64062;DHT22;50308;47.438;-1.528;2023-05-29T03:55:09;19.20;74.10
64062;DHT22;50308;47.438;-1.528;2023-05-29T03:57:39;19.20;74.00
64062;DHT22;50308;47.438;-1.528;2023-05-29T04:00:08;19.10;74.10
64062;DHT22;50308;47.438;-1.528;2023-05-29T04:02:38;19.00;74.20
64062;DHT22;50308;47.438;-1.528;2023-05-29T04:05:05;19.10;74.20
64062;DHT22;50308;47.438;-1.528;2023-05-29T04:07:35;19.00;73.80
64062;DHT22;50308;47.438;-1.528;2023-05-29T04:10:06;19.10;73.80
64062;DHT22;50308;47.438;-1.528;2023-05-29T04:12:32;19.00;74.10
64062;DHT22;50308;47.438;-1.528;2023-05-29T04:14:58;19.00;74.20
64062;DHT22;50308;47.438;-1.528;2023-05-29T04:17:24;19.00;74.40
64062;DHT22;50308;47.438;-1.528;2023-05-29T04:19:50;19.00;74.20
64062;DHT22;50308;47.438;-1.528;2023-05-29T04:22:16;18.90;74.50
64062;DHT22;50308;47.438;-1.528;2023-05-29T04:24:42;18.90;74.40
64062;DHT22;50308;47.438;-1.528;2023-05-29T04:27:10;18.90;74.30
64062;DHT22;50308;47.438;-1.528;2023-05-29T04:29:39;18.90;74.10
64062;DHT22;50308;47.438;-1.528;2023-05-29T04:32:08;18.90;74.10
64062;DHT22;50308;47.438;-1.528;2023-05-29T04:34:35;18.90;74.20
64062;DHT22;50308;47.438;-1.528;2023-05-29T04:37:02;18.90;74.00
64062;DHT22;50308;47.438;-1.528;2023-05-29T04:39:28;18.80;74.40
64062;DHT22;50308;47.438;-1.528;2023-05-29T04:41:54;18.80;74.10
64062;DHT22;50308;47.438;-1.528;2023-05-29T04:44:24;18.90;74.00
64062;DHT22;50308;47.438;-1.528;2023-05-29T04:46:55;18.90;74.20
64062;DHT22;50308;47.438;-1.528;2023-05-29T04:49:24;18.80;74.30
64062;DHT22;50308;47.438;-1.528;2023-05-29T04:51:50;18.80;74.40
64062;DHT22;50308;47.438;-1.528;2023-05-29T04:54:18;18.80;74.40
64062;DHT22;50308;47.438;-1.528;2023-05-29T04:56:45;18.80;74.40
64062;DHT22;50308;47.438;-1.528;2023-05-29T04:59:12;18.80;74.50
64062;DHT22;50308;47.438;-1.528;2023-05-29T05:01:38;18.80;74.20
64062;DHT22;50308;47.438;-1.528;2023-05-29T05:04:04;18.80;74.30
64062;DHT22;50308;47.438;-1.528;2023-05-29T05:06:29;18.80;74.10
64062;DHT22;50308;47.438;-1.528;2023-05-29T05:08:55;18.80;74.10
64062;DHT22;50308;47.438;-1.528;2023-05-29T05:11:22;18.80;74.10
64062;DHT22;50308;47.438;-1.528;2023-05-29T05:13:49;18.80;74.10
64062;DHT22;50308;47.438;-1.528;2023-05-29T05:16:15;18.70;74.10
64062;DHT22;50308;47.438;-1.528;2023-05-29T05:18:44;18.80;74.10
64062;DHT22;50308;47.438;-1.528;2023-05-29T05:21:10;18.80;74.10
64062;DHT22;50308;47.438;-1.528;2023-05-29T05:23:36;18.80;73.70
64062;DHT22;50308;47.438;-1.528;2023-05-29T05:26:02;18.80;73.90
64062;DHT22;50308;47.438;-1.528;2023-05-29T05:28:27;18.80;74.00
64062;DHT22;50308;47.438;-1.528;2023-05-29T05:30:53;18.80;73.70
64062;DHT22;50308;47.438;-1.528;2023-05-29T05:33:19;18.80;73.60
64062;DHT22;50308;47.438;-1.528;2023-05-29T05:35:48;18.80;73.90
64062;DHT22;50308;47.438;-1.528;2023-05-29T05:38:14;18.80;73.70
64062;DHT22;50308;47.438;-1.528;2023-05-29T05:40:40;18.80;73.60
64062;DHT22;50308;47.438;-1.528;2023-05-29T05:43:06;18.80;73.90
64062;DHT22;50308;47.438;-1.528;2023-05-29T05:45:32;18.90;73.70
64062;DHT22;50308;47.438;-1.528;2023-05-29T05:47:58;18.90;73.80
64062;DHT22;50308;47.438;-1.528;2023-05-29T05:50:24;18.90;73.70
64062;DHT22;50308;47.438;-1.528;2023-05-29T05:52:50;18.80;73.80
64062;DHT22;50308;47.438;-1.528;2023-05-29T05:55:16;18.90;74.00
64062;DHT22;50308;47.438;-1.528;2023-05-29T05:57:42;18.90;73.70
64062;DHT22;50308;47.438;-1.528;2023-05-29T06:00:08;18.90;74.70
64062;DHT22;50308;47.438;-1.528;2023-05-29T06:02:38;19.00;73.70
64062;DHT22;50308;47.438;-1.528;2023-05-29T06:05:08;19.00;73.50
64062;DHT22;50308;47.438;-1.528;2023-05-29T06:07:35;19.00;73.60
64062;DHT22;50308;47.438;-1.528;2023-05-29T06:10:01;19.00;73.40
64062;DHT22;50308;47.438;-1.528;2023-05-29T06:12:27;19.00;73.40
64062;DHT22;50308;47.438;-1.528;2023-05-29T06:14:53;19.00;73.70
64062;DHT22;50308;47.438;-1.528;2023-05-29T06:17:19;19.00;73.40
64062;DHT22;50308;47.438;-1.528;2023-05-29T06:19:44;19.10;73.30
64062;DHT22;50308;47.438;-1.528;2023-05-29T06:22:10;19.10;73.00
64062;DHT22;50308;47.438;-1.528;2023-05-29T06:24:36;19.20;73.00
64062;DHT22;50308;47.438;-1.528;2023-05-29T06:27:02;19.20;72.50
64062;DHT22;50308;47.438;-1.528;2023-05-29T06:29:28;19.20;72.30
64062;DHT22;50308;47.438;-1.528;2023-05-29T06:31:54;19.20;72.50
64062;DHT22;50308;47.438;-1.528;2023-05-29T06:34:20;19.20;72.30
64062;DHT22;50308;47.438;-1.528;2023-05-29T06:36:46;19.20;72.40
64062;DHT22;50308;47.438;-1.528;2023-05-29T06:39:13;19.30;72.20
64062;DHT22;50308;47.438;-1.528;2023-05-29T06:41:39;19.20;71.80
64062;DHT22;50308;47.438;-1.528;2023-05-29T06:44:06;19.20;71.90
64062;DHT22;50308;47.438;-1.528;2023-05-29T06:46:31;19.20;71.90
64062;DHT22;50308;47.438;-1.528;2023-05-29T06:48:57;19.30;71.90
64062;DHT22;50308;47.438;-1.528;2023-05-29T06:51:23;19.30;71.90
64062;DHT22;50308;47.438;-1.528;2023-05-29T06:53:49;19.40;71.60
64062;DHT22;50308;47.438;-1.528;2023-05-29T06:56:14;19.40;71.60
64062;DHT22;50308;47.438;-1.528;2023-05-29T06:58:40;19.40;71.60
64062;DHT22;50308;47.438;-1.528;2023-05-29T07:01:06;19.40;71.50
64062;DHT22;50308;47.438;-1.528;2023-05-29T07:03:32;19.40;71.70
64062;DHT22;50308;47.438;-1.528;2023-05-29T07:05:58;19.40;71.40
64062;DHT22;50308;47.438;-1.528;2023-05-29T07:08:24;19.40;71.10
64062;DHT22;50308;47.438;-1.528;2023-05-29T07:10:50;19.40;71.70
64062;DHT22;50308;47.438;-1.528;2023-05-29T07:13:16;19.50;71.60
64062;DHT22;50308;47.438;-1.528;2023-05-29T07:15:44;19.50;71.70
64062;DHT22;50308;47.438;-1.528;2023-05-29T07:18:10;19.50;71.50
64062;DHT22;50308;47.438;-1.528;2023-05-29T07:20:36;19.50;72.40
64062;DHT22;50308;47.438;-1.528;2023-05-29T07:23:02;19.50;71.00
64062;DHT22;50308;47.438;-1.528;2023-05-29T07:25:29;19.60;71.40
64062;DHT22;50308;47.438;-1.528;2023-05-29T07:27:55;19.60;72.50
64062;DHT22;50308;47.438;-1.528;2023-05-29T07:30:21;19.60;71.60
64062;DHT22;50308;47.438;-1.528;2023-05-29T07:32:47;19.60;71.60
64062;DHT22;50308;47.438;-1.528;2023-05-29T07:35:12;19.60;71.70
64062;DHT22;50308;47.438;-1.528;2023-05-29T07:37:38;19.60;71.90
64062;DHT22;50308;47.438;-1.528;2023-05-29T07:40:04;19.60;71.70
64062;DHT22;50308;47.438;-1.528;2023-05-29T07:42:33;19.60;71.90
64062;DHT22;50308;47.438;-1.528;2023-05-29T07:44:59;19.70;71.80
64062;DHT22;50308;47.438;-1.528;2023-05-29T07:47:25;19.70;71.90
64062;DHT22;50308;47.438;-1.528;2023-05-29T07:49:51;19.60;71.80
64062;DHT22;50308;47.438;-1.528;2023-05-29T07:52:20;19.70;73.10
64062;DHT22;50308;47.438;-1.528;2023-05-29T07:54:46;19.70;72.30
64062;DHT22;50308;47.438;-1.528;2023-05-29T07:57:11;19.70;71.80
64062;DHT22;50308;47.438;-1.528;2023-05-29T07:59:40;19.60;71.70
64062;DHT22;50308;47.438;-1.528;2023-05-29T08:02:07;19.60;74.50
64062;DHT22;50308;47.438;-1.528;2023-05-29T08:04:33;19.60;73.00
64062;DHT22;50308;47.438;-1.528;2023-05-29T08:07:03;19.70;73.10
64062;DHT22;50308;47.438;-1.528;2023-05-29T08:09:32;19.70;72.20
64062;DHT22;50308;47.438;-1.528;2023-05-29T08:12:01;19.70;74.00
64062;DHT22;50308;47.438;-1.528;2023-05-29T08:14:27;19.70;73.20
64062;DHT22;50308;47.438;-1.528;2023-05-29T08:16:53;19.70;73.80
64062;DHT22;50308;47.438;-1.528;2023-05-29T08:19:19;19.70;74.10
64062;DHT22;50308;47.438;-1.528;2023-05-29T08:21:45;19.70;74.10
64062;DHT22;50308;47.438;-1.528;2023-05-29T08:24:11;19.70;74.10
64062;DHT22;50308;47.438;-1.528;2023-05-29T08:26:37;19.70;73.60
64062;DHT22;50308;47.438;-1.528;2023-05-29T08:29:03;19.80;74.10
64062;DHT22;50308;47.438;-1.528;2023-05-29T08:31:30;19.70;74.00
64062;DHT22;50308;47.438;-1.528;2023-05-29T08:33:56;19.70;73.10
64062;DHT22;50308;47.438;-1.528;2023-05-29T08:36:22;19.70;73.80
64062;DHT22;50308;47.438;-1.528;2023-05-29T08:38:49;19.80;74.20
64062;DHT22;50308;47.438;-1.528;2023-05-29T08:41:25;19.80;74.40
64062;DHT22;50308;47.438;-1.528;2023-05-29T08:43:53;19.80;74.10
64062;DHT22;50308;47.438;-1.528;2023-05-29T08:46:19;19.80;74.10
64062;DHT22;50308;47.438;-1.528;2023-05-29T08:48:48;19.80;74.00
64062;DHT22;50308;47.438;-1.528;2023-05-29T08:51:20;19.80;74.10
64062;DHT22;50308;47.438;-1.528;2023-05-29T08:53:48;19.80;74.40
64062;DHT22;50308;47.438;-1.528;2023-05-29T08:56:14;19.90;73.40
64062;DHT22;50308;47.438;-1.528;2023-05-29T08:58:41;19.80;74.20
64062;DHT22;50308;47.438;-1.528;2023-05-29T09:01:20;19.80;74.10
64062;DHT22;50308;47.438;-1.528;2023-05-29T09:03:47;19.80;73.70
64062;DHT22;50308;47.438;-1.528;2023-05-29T09:06:13;19.80;74.10
64062;DHT22;50308;47.438;-1.528;2023-05-29T09:08:42;19.80;74.00
64062;DHT22;50308;47.438;-1.528;2023-05-29T09:11:08;19.80;73.50
64062;DHT22;50308;47.438;-1.528;2023-05-29T09:13:34;19.80;73.50
64062;DHT22;50308;47.438;-1.528;2023-05-29T09:16:01;19.90;74.20
64062;DHT22;50308;47.438;-1.528;2023-05-29T09:18:31;19.90;74.40
64062;DHT22;50308;47.438;-1.528;2023-05-29T09:20:58;19.90;73.90
64062;DHT22;50308;47.438;-1.528;2023-05-29T09:23:25;19.90;74.00
64062;DHT22;50308;47.438;-1.528;2023-05-29T09:25:53;19.90;74.20
64062;DHT22;50308;47.438;-1.528;2023-05-29T09:28:21;19.90;74.20
64062;DHT22;50308;47.438;-1.528;2023-05-29T09:30:49;19.90;74.20
64062;DHT22;50308;47.438;-1.528;2023-05-29T09:33:16;19.90;74.20
64062;DHT22;50308;47.438;-1.528;2023-05-29T09:35:45;19.90;74.40
64062;DHT22;50308;47.438;-1.528;2023-05-29T09:38:15;19.90;73.90
64062;DHT22;50308;47.438;-1.528;2023-05-29T09:40:42;19.90;74.20
64062;DHT22;50308;47.438;-1.528;2023-05-29T09:43:18;19.90;74.20
64062;DHT22;50308;47.438;-1.528;2023-05-29T09:45:46;19.90;74.20
64062;DHT22;50308;47.438;-1.528;2023-05-29T09:48:14;20.00;74.20
64062;DHT22;50308;47.438;-1.528;2023-05-29T09:50:40;19.90;74.20
64062;DHT22;50308;47.438;-1.528;2023-05-29T09:53:25;20.00;74.50
64062;DHT22;50308;47.438;-1.528;2023-05-29T09:55:52;20.00;74.20
64062;DHT22;50308;47.438;-1.528;2023-05-29T09:58:22;19.90;74.30
64062;DHT22;50308;47.438;-1.528;2023-05-29T10:00:49;19.90;74.50
64062;DHT22;50308;47.438;-1.528;2023-05-29T10:03:17;19.90;74.50
64062;DHT22;50308;47.438;-1.528;2023-05-29T10:05:51;19.90;74.40
64062;DHT22;50308;47.438;-1.528;2023-05-29T10:08:19;20.00;74.40
64062;DHT22;50308;47.438;-1.528;2023-05-29T10:10:59;20.00;74.50
64062;DHT22;50308;47.438;-1.528;2023-05-29T10:13:28;20.00;74.40
64062;DHT22;50308;47.438;-1.528;2023-05-29T10:15:56;20.00;74.40
64062;DHT22;50308;47.438;-1.528;2023-05-29T10:18:27;20.00;74.60
64062;DHT22;50308;47.438;-1.528;2023-05-29T10:20:56;20.00;74.50
64062;DHT22;50308;47.438;-1.528;2023-05-29T10:23:25;20.00;74.50
64062;DHT22;50308;47.438;-1.528;2023-05-29T10:25:54;20.00;74.60
64062;DHT22;50308;47.438;-1.528;2023-05-29T10:28:22;20.00;74.50
64062;DHT22;50308;47.438;-1.528;2023-05-29T10:31:01;20.10;74.50
64062;DHT22;50308;47.438;-1.528;2023-05-29T10:34:00;20.10;74.30
64062;DHT22;50308;47.438;-1.528;2023-05-29T10:36:34;20.00;74.40
64062;DHT22;50308;47.438;-1.528;2023-05-29T10:39:01;20.10;74.40
64062;DHT22;50308;47.438;-1.528;2023-05-29T10:41:28;20.10;74.60
64062;DHT22;50308;47.438;-1.528;2023-05-29T10:44:01;20.10;74.60
64062;DHT22;50308;47.438;-1.528;2023-05-29T10:49:18;20.10;74.60
64062;DHT22;50308;47.438;-1.528;2023-05-29T10:51:44;20.10;74.80
64062;DHT22;50308;47.438;-1.528;2023-05-29T10:54:12;20.10;74.90
64062;DHT22;50308;47.438;-1.528;2023-05-29T10:56:44;20.10;74.80
64062;DHT22;50308;47.438;-1.528;2023-05-29T10:59:17;20.10;74.80
64062;DHT22;50308;47.438;-1.528;2023-05-29T11:01:43;20.20;74.70
64062;DHT22;50308;47.438;-1.528;2023-05-29T11:06:41;20.20;74.50
64062;DHT22;50308;47.438;-1.528;2023-05-29T11:09:35;20.10;74.60
64062;DHT22;50308;47.438;-1.528;2023-05-29T11:12:24;20.20;74.70
64062;DHT22;50308;47.438;-1.528;2023-05-29T11:15:11;20.20;74.70
64062;DHT22;50308;47.438;-1.528;2023-05-29T11:20:07;20.10;74.80
64062;DHT22;50308;47.438;-1.528;2023-05-29T11:25:15;20.20;74.70
64062;DHT22;50308;47.438;-1.528;2023-05-29T11:27:43;20.20;74.60
64062;DHT22;50308;47.438;-1.528;2023-05-29T11:30:09;20.20;74.90
64062;DHT22;50308;47.438;-1.528;2023-05-29T11:32:38;20.20;74.90
64062;DHT22;50308;47.438;-1.528;2023-05-29T11:35:07;20.20;74.90
64062;DHT22;50308;47.438;-1.528;2023-05-29T11:37:35;20.20;74.70
64062;DHT22;50308;47.438;-1.528;2023-05-29T11:40:06;20.20;74.70
64062;DHT22;50308;47.438;-1.528;2023-05-29T11:42:36;20.20;74.60
64062;DHT22;50308;47.438;-1.528;2023-05-29T11:45:13;20.20;74.50
64062;DHT22;50308;47.438;-1.528;2023-05-29T11:50:21;20.20;74.90
64062;DHT22;50308;47.438;-1.528;2023-05-29T11:52:48;20.20;74.90
64062;DHT22;50308;47.438;-1.528;2023-05-29T11:55:14;20.20;74.80
64062;DHT22;50308;47.438;-1.528;2023-05-29T11:57:40;20.30;74.60
64062;DHT22;50308;47.438;-1.528;2023-05-29T12:00:07;20.30;74.70
64062;DHT22;50308;47.438;-1.528;2023-05-29T12:02:37;20.30;74.60
64062;DHT22;50308;47.438;-1.528;2023-05-29T12:05:06;20.30;74.50
64062;DHT22;50308;47.438;-1.528;2023-05-29T12:07:36;20.30;74.60
64062;DHT22;50308;47.438;-1.528;2023-05-29T12:10:19;20.30;74.80
64062;DHT22;50308;47.438;-1.528;2023-05-29T12:12:56;20.30;74.80
64062;DHT22;50308;47.438;-1.528;2023-05-29T12:15:22;20.30;74.80
64062;DHT22;50308;47.438;-1.528;2023-05-29T12:17:52;20.30;74.70
64062;DHT22;50308;47.438;-1.528;2023-05-29T12:20:19;20.30;74.90
64062;DHT22;50308;47.438;-1.528;2023-05-29T12:22:46;20.30;74.80
64062;DHT22;50308;47.438;-1.528;2023-05-29T12:25:16;20.30;74.90
64062;DHT22;50308;47.438;-1.528;2023-05-29T12:27:44;20.30;75.00
64062;DHT22;50308;47.438;-1.528;2023-05-29T12:30:30;20.30;75.00
64062;DHT22;50308;47.438;-1.528;2023-05-29T12:32:56;20.30;75.00
64062;DHT22;50308;47.438;-1.528;2023-05-29T12:35:27;20.30;75.00
64062;DHT22;50308;47.438;-1.528;2023-05-29T12:38:02;20.30;75.00
64062;DHT22;50308;47.438;-1.528;2023-05-29T12:40:33;20.30;75.10
64062;DHT22;50308;47.438;-1.528;2023-05-29T12:43:02;20.30;75.10
64062;DHT22;50308;47.438;-1.528;2023-05-29T12:45:30;20.30;75.10
64062;DHT22;50308;47.438;-1.528;2023-05-29T12:47:58;20.30;75.10
64062;DHT22;50308;47.438;-1.528;2023-05-29T12:50:29;20.30;75.10
64062;DHT22;50308;47.438;-1.528;2023-05-29T12:53:08;20.40;75.00
64062;DHT22;50308;47.438;-1.528;2023-05-29T12:55:36;20.30;75.00
64062;DHT22;50308;47.438;-1.528;2023-05-29T12:58:06;20.30;76.10
64062;DHT22;50308;47.438;-1.528;2023-05-29T13:00:33;20.30;75.10
64062;DHT22;50308;47.438;-1.528;2023-05-29T13:03:00;20.30;75.10
64062;DHT22;50308;47.438;-1.528;2023-05-29T13:05:27;20.30;75.10
64062;DHT22;50308;47.438;-1.528;2023-05-29T13:07:53;20.40;75.20
64062;DHT22;50308;47.438;-1.528;2023-05-29T13:10:20;20.40;75.10
64062;DHT22;50308;47.438;-1.528;2023-05-29T13:12:48;20.40;75.20
64062;DHT22;50308;47.438;-1.528;2023-05-29T13:15:15;20.40;75.20
64062;DHT22;50308;47.438;-1.528;2023-05-29T13:17:41;20.40;75.20
64062;DHT22;50308;47.438;-1.528;2023-05-29T13:20:11;20.40;75.20
64062;DHT22;50308;47.438;-1.528;2023-05-29T13:22:40;20.40;75.20
64062;DHT22;50308;47.438;-1.528;2023-05-29T13:25:07;20.40;75.30
64062;DHT22;50308;47.438;-1.528;2023-05-29T13:27:38;20.40;75.20
64062;DHT22;50308;47.438;-1.528;2023-05-29T13:30:05;20.40;75.20
64062;DHT22;50308;47.438;-1.528;2023-05-29T13:32:31;20.40;75.20
64062;DHT22;50308;47.438;-1.528;2023-05-29T13:34:58;20.40;75.20
64062;DHT22;50308;47.438;-1.528;2023-05-29T13:37:25;20.40;75.20
64062;DHT22;50308;47.438;-1.528;2023-05-29T13:39:53;20.50;75.20
64062;DHT22;50308;47.438;-1.528;2023-05-29T13:42:19;20.50;75.20
64062;DHT22;50308;47.438;-1.528;2023-05-29T13:44:46;20.50;75.30
64062;DHT22;50308;47.438;-1.528;2023-05-29T13:47:12;20.50;75.30
64062;DHT22;50308;47.438;-1.528;2023-05-29T13:49:38;20.50;75.40
64062;DHT22;50308;47.438;-1.528;2023-05-29T13:52:05;20.50;75.20
64062;DHT22;50308;47.438;-1.528;2023-05-29T13:54:31;20.50;75.30
64062;DHT22;50308;47.438;-1.528;2023-05-29T13:57:01;20.50;75.30
64062;DHT22;50308;47.438;-1.528;2023-05-29T13:59:29;20.50;75.30
64062;DHT22;50308;47.438;-1.528;2023-05-29T14:01:55;20.50;75.30
64062;DHT22;50308;47.438;-1.528;2023-05-29T14:04:20;20.50;75.30
64062;DHT22;50308;47.438;-1.528;2023-05-29T14:06:46;20.50;75.30
64062;DHT22;50308;47.438;-1.528;2023-05-29T14:09:12;20.50;75.40
64062;DHT22;50308;47.438;-1.528;2023-05-29T14:11:39;20.50;75.40
64062;DHT22;50308;47.438;-1.528;2023-05-29T14:14:05;20.50;75.20
64062;DHT22;50308;47.438;-1.528;2023-05-29T14:16:32;20.60;76.40
64062;DHT22;50308;47.438;-1.528;2023-05-29T14:18:58;20.60;76.30
64062;DHT22;50308;47.438;-1.528;2023-05-29T14:21:24;20.50;75.20
64062;DHT22;50308;47.438;-1.528;2023-05-29T14:23:50;20.50;75.30
64062;DHT22;50308;47.438;-1.528;2023-05-29T14:26:16;20.50;75.30
64062;DHT22;50308;47.438;-1.528;2023-05-29T14:28:42;20.50;75.40
64062;DHT22;50308;47.438;-1.528;2023-05-29T14:31:08;20.60;75.40
64062;DHT22;50308;47.438;-1.528;2023-05-29T14:33:33;20.50;75.40
64062;DHT22;50308;47.438;-1.528;2023-05-29T14:36:02;20.60;75.30
64062;DHT22;50308;47.438;-1.528;2023-05-29T14:38:28;20.60;75.20
64062;DHT22;50308;47.438;-1.528;2023-05-29T14:40:55;20.60;75.30
64062;DHT22;50308;47.438;-1.528;2023-05-29T14:43:21;20.60;75.40
64062;DHT22;50308;47.438;-1.528;2023-05-29T14:45:47;20.60;75.30
64062;DHT22;50308;47.438;-1.528;2023-05-29T14:48:13;20.60;75.30
64062;DHT22;50308;47.438;-1.528;2023-05-29T14:50:41;20.60;75.30
64062;DHT22;50308;47.438;-1.528;2023-05-29T14:53:07;20.60;75.30
64062;DHT22;50308;47.438;-1.528;2023-05-29T14:55:33;20.70;75.40
64062;DHT22;50308;47.438;-1.528;2023-05-29T14:58:03;20.60;75.60
64062;DHT22;50308;47.438;-1.528;2023-05-29T15:00:29;20.60;75.40
64062;DHT22;50308;47.438;-1.528;2023-05-29T15:02:55;20.70;75.40
64062;DHT22;50308;47.438;-1.528;2023-05-29T15:05:27;20.70;75.40
64062;DHT22;50308;47.438;-1.528;2023-05-29T15:07:54;20.60;75.30
64062;DHT22;50308;47.438;-1.528;2023-05-29T15:10:25;20.70;75.40
64062;DHT22;50308;47.438;-1.528;2023-05-29T15:12:54;20.70;75.40
64062;DHT22;50308;47.438;-1.528;2023-05-29T15:15:24;20.70;75.40
64062;DHT22;50308;47.438;-1.528;2023-05-29T15:17:51;20.70;75.40
64062;DHT22;50308;47.438;-1.528;2023-05-29T15:20:27;20.70;75.40
64062;DHT22;50308;47.438;-1.528;2023-05-29T15:22:53;20.70;75.30
64062;DHT22;50308;47.438;-1.528;2023-05-29T15:25:20;20.70;75.50
64062;DHT22;50308;47.438;-1.528;2023-05-29T15:27:46;20.70;75.50
64062;DHT22;50308;47.438;-1.528;2023-05-29T15:30:14;20.70;75.50
64062;DHT22;50308;47.438;-1.528;2023-05-29T15:32:42;20.70;75.40
64062;DHT22;50308;47.438;-1.528;2023-05-29T15:35:12;20.70;75.40
64062;DHT22;50308;47.438;-1.528;2023-05-29T15:37:38;20.70;75.30
64062;DHT22;50308;47.438;-1.528;2023-05-29T15:40:05;20.80;75.30
64062;DHT22;50308;47.438;-1.528;2023-05-29T15:42:32;20.80;75.20